Terminal Aerodrome Forecast
Issued by NWS Twin Cities, MN

Home | Current Version | Previous Version | Text Only | Print | Product List | Glossary Off
Versions: 1 2 3 4 5 6 7 8 9 10 11 12 13 14 15 16 17

941
FTUS43 KMPX 260520
TAFSTC
TAF
KSTC 260520Z 2606/2706 02012G22KT 6SM -RA BR OVC008
     FM261500 35013G22KT P6SM VCSH OVC008
     FM261800 33011G17KT P6SM BKN008 OVC015=

USA.gov is the U.S. government's official web portal to all federal, state and local government web resources and services.